Time;durP1;ratioP1;P1;durP2;ratioP2;P2;SDS_P1;SDS_P2;PMS_P1;PMS_P2;Temp;Humidity;BMP_temperature;BMP_pressure;BME280_temperature;BME280_humidity;BME280_pressure;Samples;Min_cycle;Max_cycle;Signal;HPM_P1;HPM_P2
2021/01/29 00:02:44;;;;;;;1.93;1.53;;;;;;;7.77;69.38;96601.44;8333911;28;20215;-77
2021/01/29 00:06:46;;;;;;;0.80;0.80;;;;;;;7.81;69.49;96595.19;8334564;28;20240;-77
2021/01/29 00:10:49;;;;;;;0.80;0.80;;;;;;;8.01;69.15;96592.34;8334772;28;20216;-77
2021/01/29 00:14:51;;;;;;;0.80;0.80;;;;;;;8.01;69.18;96592.34;8333794;28;20299;-77
2021/01/29 00:18:53;;;;;;;2.37;1.30;;;;;;;7.86;68.84;96588.00;8333673;28;20227;-78
2021/01/29 00:22:56;;;;;;;2.27;1.60;;;;;;;7.70;69.21;96577.72;8333956;28;20266;-77
2021/01/29 00:26:58;;;;;;;1.20;1.10;;;;;;;7.78;69.30;96570.41;8335078;28;20572;-77
2021/01/29 00:31:00;;;;;;;1.00;1.00;;;;;;;7.90;69.54;96592.09;8316853;28;20574;-78
2021/01/29 00:35:03;;;;;;;1.50;1.40;;;;;;;7.91;68.95;96580.03;8301888;28;20247;-77
2021/01/29 00:39:05;;;;;;;1.40;1.30;;;;;;;7.92;69.26;96579.09;8301468;28;20235;-77
2021/01/29 00:43:08;;;;;;;1.70;1.60;;;;;;;7.81;68.95;96567.66;8301621;28;20228;-77
2021/01/29 00:47:10;;;;;;;1.80;1.70;;;;;;;7.71;70.04;96573.41;8303075;28;20216;-77
2021/01/29 00:51:12;;;;;;;1.80;1.70;;;;;;;7.95;69.10;96573.78;8302471;28;20280;-77
2021/01/29 00:55:16;;;;;;;1.50;1.40;;;;;;;7.97;68.85;96567.63;8302226;28;20205;-77
2021/01/29 00:59:19;;;;;;;1.63;1.53;;;;;;;7.93;69.29;96573.03;8301422;28;20229;-77
2021/01/29 01:03:21;;;;;;;1.60;1.50;;;;;;;7.66;69.85;96568.50;8302268;28;20209;-77
2021/01/29 01:07:22;;;;;;;1.07;1.00;;;;;;;7.82;69.56;96553.03;8301409;28;20232;-77
2021/01/29 01:11:24;;;;;;;0.90;0.90;;;;;;;7.85;69.13;96534.00;8300084;28;20607;-78
2021/01/29 01:15:27;;;;;;;1.00;0.90;;;;;;;7.74;69.24;96524.28;8300945;28;20197;-77
2021/01/29 01:19:29;;;;;;;1.27;0.90;;;;;;;7.74;68.80;96527.69;8300485;28;20228;-78
2021/01/29 01:23:30;;;;;;;1.53;1.20;;;;;;;7.82;68.97;96514.34;8300829;28;20232;-77
2021/01/29 01:27:33;;;;;;;1.43;1.30;;;;;;;7.72;69.05;96497.75;8301442;28;20228;-77
2021/01/29 01:31:36;;;;;;;1.40;1.30;;;;;;;7.70;69.06;96495.28;8301041;28;20209;-78
2021/01/29 01:35:38;;;;;;;1.73;1.63;;;;;;;7.49;70.07;96499.06;8300263;28;20292;-77
2021/01/29 01:39:39;;;;;;;1.70;1.60;;;;;;;7.40;70.40;96490.06;8300291;28;20221;-77
2021/01/29 01:43:41;;;;;;;26.40;2.93;;;;;;;7.23;70.44;96476.41;8300278;28;20205;-77
2021/01/29 01:47:44;;;;;;;18.90;3.67;;;;;;;6.96;72.29;96470.16;8300322;28;20243;-77
2021/01/29 01:51:51;;;;;;;6.33;3.10;;;;;;;7.11;71.71;96453.88;8299001;28;20216;-77
2021/01/29 01:56:09;;;;;;;25.87;3.40;;;;;;;7.01;71.70;96452.72;8300554;28;20645;-77
2021/01/29 02:00:15;;;;;;;4.80;3.20;;;;;;;7.21;71.52;96454.19;8302069;28;20232;-77
2021/01/29 02:04:18;;;;;;;4.20;3.80;;;;;;;7.24;71.09;96448.91;8302687;28;20228;-77
2021/01/29 02:08:20;;;;;;;4.70;4.30;;;;;;;7.09;72.00;96442.00;8304052;28;20635;-78
2021/01/29 02:12:22;;;;;;;4.53;4.17;;;;;;;7.28;71.39;96432.34;8304317;28;20216;-78
2021/01/29 02:16:32;;;;;;;3.67;3.37;;;;;;;7.25;71.66;96427.38;8304818;28;20561;-78
2021/01/29 02:21:08;;;;;;;3.00;2.80;;;;;;;7.27;71.70;96427.28;8303392;28;20225;-77
2021/01/29 02:25:48;;;;;;;2.93;2.70;;;;;;;7.32;71.40;96415.00;8304823;28;20206;-77
2021/01/29 02:30:04;;;;;;;2.50;2.30;;;;;;;7.34;71.72;96405.44;8303548;28;20201;-77
2021/01/29 02:34:31;;;;;;;3.60;3.30;;;;;;;7.32;71.54;96399.53;8303611;28;20590;-77
2021/01/29 02:38:55;;;;;;;2.77;2.57;;;;;;;7.64;70.71;96408.00;8288490;28;20649;-77
2021/01/29 02:43:06;;;;;;;2.70;2.50;;;;;;;7.57;70.93;96404.94;8304038;28;20193;-77
2021/01/29 02:47:13;;;;;;;3.23;2.93;;;;;;;7.50;70.78;96395.09;8303014;28;20197;-77
2021/01/29 02:51:20;;;;;;;5.00;2.33;;;;;;;7.66;71.11;96395.06;8303390;28;20193;-78
2021/01/29 02:55:25;;;;;;;3.10;2.63;;;;;;;7.51;71.38;96389.84;8302844;28;20224;-78
2021/01/29 02:59:31;;;;;;;3.20;2.77;;;;;;;7.48;71.34;96368.59;8312384;28;20229;-79
2021/01/29 03:03:38;;;;;;;2.63;2.43;;;;;;;7.35;72.11;96355.56;8326426;28;20672;-79
2021/01/29 03:07:43;;;;;;;2.30;2.10;;;;;;;7.54;71.62;96351.03;8338129;28;20255;-79
2021/01/29 03:11:51;;;;;;;2.60;2.40;;;;;;;7.71;71.17;96344.06;8355952;28;20215;-79
2021/01/29 03:15:56;;;;;;;2.20;2.00;;;;;;;7.74;71.41;96333.59;8350115;28;20196;-79
2021/01/29 03:20:04;;;;;;;2.50;2.30;;;;;;;7.62;71.81;96327.41;8356229;28;20263;-79
2021/01/29 03:24:09;;;;;;;2.50;1.90;;;;;;;7.70;71.96;96317.47;8358552;28;20203;-79
2021/01/29 03:28:14;;;;;;;3.70;2.13;;;;;;;7.73;71.45;96303.56;8341490;28;20204;-79
2021/01/29 03:32:16;;;;;;;2.33;2.13;;;;;;;7.71;71.68;96297.69;8359423;28;20195;-79
2021/01/29 03:36:23;;;;;;;2.30;2.10;;;;;;;7.78;71.14;96286.91;8360031;28;20201;-79
2021/01/29 03:40:27;;;;;;;2.60;2.40;;;;;;;7.70;72.10;96281.41;8360757;28;20266;-79
2021/01/29 03:44:42;;;;;;;2.30;2.10;;;;;;;7.77;71.78;96274.97;8361421;28;20207;-79
2021/01/29 03:48:50;;;;;;;2.00;1.80;;;;;;;7.99;71.30;96269.31;8357122;28;20222;-78
2021/01/29 03:52:59;;;;;;;2.10;2.00;;;;;;;7.88;71.84;96253.72;8337058;28;20204;-79
2021/01/29 03:57:04;;;;;;;2.10;1.90;;;;;;;7.82;71.94;96249.75;8337851;28;20248;-78
2021/01/29 04:01:16;;;;;;;2.30;2.00;;;;;;;7.90;71.86;96246.72;8335490;28;20236;-79
2021/01/29 04:05:21;;;;;;;2.83;2.40;;;;;;;7.91;72.16;96224.34;8302969;28;20221;-78
2021/01/29 04:09:34;;;;;;;3.20;2.73;;;;;;;7.85;72.09;96219.56;8315004;28;20582;-79
2021/01/29 04:13:38;;;;;;;4.00;2.90;;;;;;;7.85;72.92;96212.66;8311592;28;20236;-78
2021/01/29 04:17:45;;;;;;;3.80;2.83;;;;;;;7.82;72.93;96203.38;8311181;28;20654;-79
2021/01/29 04:21:52;;;;;;;4.83;2.60;;;;;;;7.96;72.62;96189.63;8317089;28;20229;-79
2021/01/29 04:25:58;;;;;;;2.73;2.50;;;;;;;8.05;72.24;96184.81;8310467;28;20212;-79
2021/01/29 04:30:01;;;;;;;3.23;2.40;;;;;;;8.15;72.06;96180.75;8308344;28;20193;-79
2021/01/29 04:34:08;;;;;;;3.10;2.80;;;;;;;8.18;71.83;96163.31;8303885;28;20205;-78
2021/01/29 04:38:12;;;;;;;2.37;2.17;;;;;;;8.31;72.03;96165.13;8301849;28;20220;-78
2021/01/29 04:42:23;;;;;;;3.50;2.43;;;;;;;8.32;71.85;96159.88;8300722;28;20225;-78
2021/01/29 04:46:36;;;;;;;4.67;2.70;;;;;;;8.26;74.59;96149.09;8300866;28;20197;-78
2021/01/29 04:50:46;;;;;;;3.20;2.20;;;;;;;8.48;74.75;96141.66;8301170;28;20200;-78
2021/01/29 04:55:34;;;;;;;2.53;1.90;;;;;;;8.64;74.43;96130.34;8299969;28;20208;-78
2021/01/29 04:59:45;;;;;;;3.80;1.90;;;;;;;8.77;74.24;96132.00;8300926;28;20224;-78
2021/01/29 05:04:25;;;;;;;2.03;1.80;;;;;;;8.82;74.91;96107.66;8277739;28;20225;-78
2021/01/29 05:08:53;;;;;;;3.07;1.87;;;;;;;8.92;74.78;96093.19;8294860;28;20305;-78
2021/01/29 05:13:30;;;;;;;3.50;1.50;;;;;;;8.90;75.82;96093.31;8300930;28;20564;-78
2021/01/29 05:17:54;;;;;;;2.40;1.40;;;;;;;8.97;75.45;96083.41;8300984;28;20224;-79
2021/01/29 05:22:27;;;;;;;2.03;1.37;;;;;;;9.08;75.36;96070.59;8303121;28;20240;-78
2021/01/29 05:27:11;;;;;;;2.10;1.50;;;;;;;9.09;75.84;96054.16;8304415;28;20205;-79
2021/01/29 05:31:32;;;;;;;1.47;1.20;;;;;;;9.16;75.48;96042.47;8305525;28;20209;-78
2021/01/29 05:35:45;;;;;;;2.53;1.33;;;;;;;9.21;75.50;96034.38;8309625;28;20243;-78
2021/01/29 05:39:55;;;;;;;2.73;1.40;;;;;;;9.27;75.47;96021.06;8312110;28;20217;-78
2021/01/29 05:44:13;;;;;;;1.93;1.13;;;;;;;9.21;76.11;96016.31;8314582;28;20205;-79
2021/01/29 05:48:40;;;;;;;1.87;1.60;;;;;;;9.25;76.01;96006.59;8313593;28;20194;-78
2021/01/29 05:53:03;;;;;;;4.23;2.00;;;;;;;9.20;76.34;95999.19;8320283;28;20190;-79
2021/01/29 05:57:23;;;;;;;2.30;1.90;;;;;;;9.26;75.81;95988.41;8319913;28;20240;-79
2021/01/29 06:01:46;;;;;;;1.80;1.70;;;;;;;9.32;75.19;95977.63;8313636;28;20221;-78
2021/01/29 06:06:00;;;;;;;1.83;1.57;;;;;;;9.36;75.66;95958.41;8305767;28;20583;-78
2021/01/29 06:10:28;;;;;;;2.00;1.50;;;;;;;9.30;76.29;95935.59;8274656;28;20645;-79
2021/01/29 06:15:13;;;;;;;1.67;1.30;;;;;;;9.18;76.63;95926.16;8283049;28;20194;-78
2021/01/29 06:19:36;;;;;;;2.13;1.70;;;;;;;9.28;76.28;95923.72;8279050;28;20313;-79
2021/01/29 06:24:07;;;;;;;2.47;1.47;;;;;;;9.39;75.57;95916.84;8284515;28;20198;-79
2021/01/29 06:28:34;;;;;;;1.80;1.17;;;;;;;9.38;75.49;95911.78;8268578;28;20578;-79
2021/01/29 06:33:30;;;;;;;1.10;1.00;;;;;;;9.44;75.41;95908.75;8290448;28;20229;-79
2021/01/29 06:37:39;;;;;;;1.33;0.63;;;;;;;9.44;75.33;95901.00;8184174;28;20198;-79
2021/01/29 06:41:51;;;;;;;1.40;1.00;;;;;;;9.52;74.81;95903.03;8270340;28;20249;-79
2021/01/29 06:46:04;;;;;;;1.40;1.10;;;;;;;9.55;75.05;95895.88;8249974;28;20202;-78
2021/01/29 06:50:31;;;;;;;2.80;1.27;;;;;;;9.58;75.05;95894.84;8238987;28;20207;-77
2021/01/29 06:54:54;;;;;;;1.33;1.20;;;;;;;9.48;75.38;95881.78;8271981;28;20558;-79
2021/01/29 06:59:34;;;;;;;1.40;1.10;;;;;;;9.59;74.91;95874.06;8280309;28;20205;-79
2021/01/29 07:04:03;;;;;;;2.23;0.80;;;;;;;9.65;74.62;95864.19;8276933;28;20209;-79
2021/01/29 07:08:15;;;;;;;1.47;0.80;;;;;;;9.64;74.80;95852.22;8307575;28;20232;-79
2021/01/29 07:12:32;;;;;;;0.70;0.50;;;;;;;9.61;74.41;95853.25;8322041;28;20216;-79
2021/01/29 07:16:53;;;;;;;3.97;1.00;;;;;;;9.56;74.59;95850.22;8306591;28;20199;-78
2021/01/29 07:21:08;;;;;;;1.77;0.70;;;;;;;9.44;75.40;95830.44;8299685;28;20228;-78
2021/01/29 07:25:15;;;;;;;3.10;0.70;;;;;;;9.51;75.12;95835.03;8302373;28;20197;-78
2021/01/29 07:29:30;;;;;;;1.37;0.67;;;;;;;9.59;74.74;95824.13;8313515;28;20560;-80
2021/01/29 07:33:36;;;;;;;1.27;0.60;;;;;;;9.50;75.33;95824.81;8307796;28;20201;-80
2021/01/29 07:38:08;;;;;;;1.10;0.80;;;;;;;9.61;74.95;95827.41;8325463;28;20200;-80
2021/01/29 07:42:30;;;;;;;1.70;0.50;;;;;;;9.52;75.30;95821.19;8325682;28;20225;-80
2021/01/29 07:46:54;;;;;;;4.00;2.07;;;;;;;9.64;74.52;95805.72;8323055;28;20336;-79
2021/01/29 07:50:59;;;;;;;1.30;0.87;;;;;;;9.66;74.85;95796.09;8318024;28;20591;-80
2021/01/29 07:55:26;;;;;;;0.80;0.50;;;;;;;9.59;74.33;95801.72;8319467;28;20204;-80
2021/01/29 07:59:36;;;;;;;1.00;0.70;;;;;;;9.60;74.47;95797.38;8320427;28;20296;-80
2021/01/29 08:03:53;;;;;;;1.13;0.70;;;;;;;9.76;73.86;95797.03;8321157;28;20254;-80
2021/01/29 08:08:00;;;;;;;1.53;0.90;;;;;;;9.69;74.75;95798.41;8311902;28;20271;-79
2021/01/29 08:12:05;;;;;;;2.40;0.73;;;;;;;9.65;74.89;95790.06;8307678;28;20208;-81
2021/01/29 08:16:18;;;;;;;0.50;0.50;;;;;;;9.60;74.94;95781.88;8303445;28;20225;-78
2021/01/29 08:20:38;;;;;;;0.93;0.57;;;;;;;9.65;75.17;95777.16;8303322;28;20278;-78
2021/01/29 08:24:50;;;;;;;0.80;0.50;;;;;;;9.41;75.81;95785.00;8299319;28;20221;-79
2021/01/29 08:29:35;;;;;;;0.60;0.60;;;;;;;9.52;75.49;95795.34;8283406;28;20221;-79
2021/01/29 08:33:55;;;;;;;0.50;0.50;;;;;;;9.56;75.43;95777.88;8301707;28;20208;-79
2021/01/29 08:38:03;;;;;;;1.13;0.47;;;;;;;9.48;74.67;95790.50;8300129;28;20204;-79
2021/01/29 08:42:14;;;;;;;1.90;0.50;;;;;;;9.51;74.31;95779.97;8299634;28;20219;-78
2021/01/29 08:46:30;;;;;;;0.60;0.50;;;;;;;9.45;74.07;95789.00;8299884;28;20198;-78
2021/01/29 08:50:43;;;;;;;0.60;0.50;;;;;;;9.41;75.43;95797.09;8283836;28;20607;-78
2021/01/29 08:54:54;;;;;;;2.40;0.40;;;;;;;9.35;74.25;95806.13;8301596;28;20197;-77
2021/01/29 08:58:59;;;;;;;0.53;0.50;;;;;;;9.46;74.42;95803.56;8302736;28;20777;-78
2021/01/29 09:03:12;;;;;;;12.90;1.63;;;;;;;11.50;77.21;95809.28;8301127;28;20248;-77
2021/01/29 09:07:18;;;;;;;1.40;0.70;;;;;;;11.73;74.84;95826.34;8307843;28;20570;-76
2021/01/29 09:11:22;;;;;;;5.50;0.90;;;;;;;12.16;72.21;95827.13;8309021;28;20204;-78
2021/01/29 09:15:26;;;;;;;3.03;0.60;;;;;;;12.08;68.84;95829.56;8309575;28;20209;-78
2021/01/29 09:19:31;;;;;;;0.90;0.77;;;;;;;11.09;67.20;95840.19;8300635;28;20230;-77
2021/01/29 09:23:38;;;;;;;1.03;0.93;;;;;;;10.50;69.30;95845.75;8276504;28;20317;-77
2021/01/29 09:27:48;;;;;;;0.50;0.50;;;;;;;10.42;70.01;95850.69;8276062;28;20622;-77
2021/01/29 09:31:55;;;;;;;0.60;0.50;;;;;;;10.21;70.61;95855.72;8276354;28;20206;-77
2021/01/29 09:36:00;;;;;;;1.00;0.80;;;;;;;10.18;70.90;95877.44;8278117;28;20205;-77
2021/01/29 09:40:05;;;;;;;1.00;0.80;;;;;;;10.07;71.10;95880.03;8280891;28;20237;-78
2021/01/29 09:44:13;;;;;;;0.73;0.50;;;;;;;9.90;71.29;95889.91;8277190;28;20197;-79
2021/01/29 09:48:15;;;;;;;0.70;0.50;;;;;;;9.95;71.83;95905.03;8328631;28;20196;-79
2021/01/29 09:52:22;;;;;;;1.43;0.50;;;;;;;9.77;72.50;95913.25;8333914;28;20228;-78
2021/01/29 09:56:25;;;;;;;2.10;0.60;;;;;;;9.69;73.08;95915.56;8309104;28;20569;-79
2021/01/29 10:00:29;;;;;;;1.20;0.70;;;;;;;9.78;72.99;95932.16;8315682;28;20256;-79
2021/01/29 10:05:06;;;;;;;1.97;1.50;;;;;;;9.74;73.06;95920.38;8311618;28;20221;-78
2021/01/29 10:09:16;;;;;;;3.73;0.90;;;;;;;9.64;73.68;95938.34;8298389;28;20236;-78
2021/01/29 10:13:26;;;;;;;1.90;0.90;;;;;;;9.70;74.35;95944.81;8308172;28;20197;-78
2021/01/29 10:17:31;;;;;;;0.70;0.70;;;;;;;9.66;74.43;95945.97;8307524;28;20192;-78
2021/01/29 10:21:48;;;;;;;0.93;0.60;;;;;;;9.52;74.16;95947.81;8308418;28;20217;-79
2021/01/29 10:26:10;;;;;;;1.80;0.70;;;;;;;9.50;74.95;95988.44;8305493;28;20193;-78
2021/01/29 10:30:21;;;;;;;1.50;0.70;;;;;;;9.50;74.13;95970.34;8301779;28;20684;-78
2021/01/29 10:34:30;;;;;;;2.97;0.60;;;;;;;9.60;73.47;95960.16;8305616;28;20255;-79
2021/01/29 10:38:38;;;;;;;1.50;0.70;;;;;;;9.67;74.27;95958.78;8318347;28;20190;-79
2021/01/29 10:42:46;;;;;;;1.93;1.13;;;;;;;9.72;74.20;95961.84;8315499;28;20224;-78
2021/01/29 10:47:04;;;;;;;1.33;0.80;;;;;;;9.74;73.85;95959.16;8307893;28;20217;-78
2021/01/29 10:51:09;;;;;;;2.60;1.10;;;;;;;9.78;73.93;95983.84;8307427;28;20235;-78
2021/01/29 10:55:21;;;;;;;1.30;0.90;;;;;;;9.76;73.34;95971.03;8300604;28;20221;-77
2021/01/29 10:59:27;;;;;;;2.17;1.13;;;;;;;9.69;73.90;95982.78;8271925;28;20626;-77
2021/01/29 11:03:51;;;;;;;1.30;0.90;;;;;;;9.57;73.38;95988.81;8272579;28;20268;-77
2021/01/29 11:08:01;;;;;;;2.63;1.13;;;;;;;9.67;73.06;95994.13;8271996;28;20272;-77
2021/01/29 11:12:18;;;;;;;3.33;2.03;;;;;;;9.61;72.72;95982.47;8271717;28;20567;-77
2021/01/29 11:16:24;;;;;;;5.40;3.30;;;;;;;9.61;72.20;95992.00;8271112;28;20194;-78
2021/01/29 11:20:29;;;;;;;3.53;1.20;;;;;;;9.52;71.51;95993.47;8271712;28;20233;-78
2021/01/29 11:24:33;;;;;;;4.77;1.40;;;;;;;9.74;71.19;96008.28;8283951;28;20681;-79
2021/01/29 11:28:52;;;;;;;5.33;2.30;;;;;;;9.92;70.69;96009.53;8318071;28;20189;-79
2021/01/29 11:32:57;;;;;;;3.47;1.27;;;;;;;9.81;70.99;96003.50;8309665;28;20201;-79
2021/01/29 11:37:06;;;;;;;6.17;1.23;;;;;;;9.77;70.76;96023.56;8304063;28;20200;-78
2021/01/29 11:41:29;;;;;;;3.40;1.27;;;;;;;9.62;71.24;96022.09;8291700;28;20213;-78
2021/01/29 11:45:33;;;;;;;5.70;1.40;;;;;;;9.67;71.30;96031.16;8302019;28;20204;-78
2021/01/29 11:49:47;;;;;;;2.83;1.13;;;;;;;9.72;71.44;96034.22;8301776;28;20204;-78
2021/01/29 11:53:56;;;;;;;4.37;1.60;;;;;;;9.88;70.13;96023.63;8299738;28;20212;-78
2021/01/29 11:58:08;;;;;;;5.90;1.50;;;;;;;9.87;68.96;96036.66;8301944;28;20198;-78
2021/01/29 12:02:23;;;;;;;7.43;2.30;;;;;;;9.93;67.95;96034.44;8301755;28;20205;-78
2021/01/29 12:06:32;;;;;;;7.70;3.60;;;;;;;10.10;66.85;96034.97;8301599;28;20236;-78
2021/01/29 12:10:46;;;;;;;10.00;2.87;;;;;;;10.22;66.52;96033.25;8302927;28;20679;-78
2021/01/29 12:14:59;;;;;;;11.53;2.50;;;;;;;11.99;70.59;96038.66;8316140;28;20209;-80
2021/01/29 12:19:02;;;;;;;9.83;2.40;;;;;;;12.46;60.71;96048.72;8309889;28;20630;-79
2021/01/29 12:23:12;;;;;;;9.73;2.40;;;;;;;11.14;61.14;96054.84;8301142;28;20236;-77
2021/01/29 12:27:17;;;;;;;9.23;1.93;;;;;;;10.75;62.40;96049.97;8299743;28;20189;-77
2021/01/29 12:31:27;;;;;;;8.17;2.30;;;;;;;10.86;62.64;96056.13;8299828;28;20209;-77
2021/01/29 12:35:33;;;;;;;7.37;2.33;;;;;;;10.65;62.66;96046.44;8300942;28;20629;-77
2021/01/29 12:39:40;;;;;;;7.90;2.20;;;;;;;10.62;63.31;96045.84;8299724;28;20193;-77
2021/01/29 12:43:54;;;;;;;7.23;2.10;;;;;;;10.51;63.42;96049.25;8300679;28;20201;-77
2021/01/29 12:48:06;;;;;;;4.53;1.93;;;;;;;10.64;63.85;96049.13;8300495;28;20186;-78
2021/01/29 12:52:16;;;;;;;5.87;1.70;;;;;;;10.68;63.56;96050.56;8301005;28;20228;-77
2021/01/29 12:56:47;;;;;;;5.37;1.73;;;;;;;10.73;63.56;96057.03;8301583;28;20193;-77
2021/01/29 13:01:02;;;;;;;8.30;2.00;;;;;;;10.69;63.83;96042.69;8302438;28;20216;-77
2021/01/29 13:05:14;;;;;;;7.83;2.23;;;;;;;10.72;64.36;96052.81;8301918;28;20217;-77
2021/01/29 13:09:31;;;;;;;8.93;1.93;;;;;;;10.53;64.72;96042.19;8301312;28;20700;-79
2021/01/29 13:13:40;;;;;;;7.25;2.00;;;;;;;10.63;65.90;96044.91;8300832;28;20425;-78
2021/01/29 13:17:43;;;;;;;7.50;2.00;;;;;;;10.34;66.58;96047.91;8306463;28;20193;-80
2021/01/29 13:21:50;;;;;;;8.70;2.27;;;;;;;10.35;67.64;96065.88;8318810;28;20217;-79
2021/01/29 13:25:58;;;;;;;7.67;2.50;;;;;;;10.35;68.55;96058.13;8321256;28;20259;-79
2021/01/29 13:30:32;;;;;;;9.63;3.43;;;;;;;10.30;69.27;96060.25;8304952;28;20205;-80
2021/01/29 13:34:40;;;;;;;8.03;3.40;;;;;;;10.37;69.19;96053.66;8320536;28;20205;-79
2021/01/29 13:38:43;;;;;;;10.47;5.07;;;;;;;10.44;68.75;96051.47;8318493;28;20295;-79
2021/01/29 13:42:44;;;;;;;8.13;2.80;;;;;;;10.57;67.92;96054.78;8317421;28;20217;-80
2021/01/29 13:46:51;;;;;;;6.63;2.17;;;;;;;10.62;68.09;96051.03;8299359;28;20723;-80
2021/01/29 13:50:55;;;;;;;7.70;3.67;;;;;;;10.47;68.03;96051.25;8318577;28;20197;-80
2021/01/29 13:54:59;;;;;;;5.60;2.27;;;;;;;10.57;67.34;96047.03;8325570;28;20204;-80
2021/01/29 13:59:04;;;;;;;8.83;4.13;;;;;;;10.71;66.63;96051.16;8322049;28;20197;-80
2021/01/29 14:03:13;;;;;;;11.30;5.70;;;;;;;10.63;66.65;96052.69;8323398;28;20209;-80
2021/01/29 14:07:15;;;;;;;6.73;2.40;;;;;;;10.32;66.48;96052.38;8325918;28;20237;-80
2021/01/29 14:11:22;;;;;;;8.73;3.33;;;;;;;10.47;67.46;96032.28;8324249;28;20201;-80
2021/01/29 14:15:29;;;;;;;7.70;2.67;;;;;;;10.62;67.38;96038.91;8323553;28;20208;-80
2021/01/29 14:19:42;;;;;;;7.27;2.30;;;;;;;10.73;66.35;96038.09;8323792;28;20269;-80
2021/01/29 14:23:51;;;;;;;9.13;2.97;;;;;;;10.75;67.25;96041.41;8325139;28;20572;-80
2021/01/29 14:28:02;;;;;;;6.50;3.10;;;;;;;10.84;66.41;96040.69;8329816;28;20197;-81
2021/01/29 14:32:31;;;;;;;11.20;3.20;;;;;;;10.94;66.37;96031.28;8324315;28;20200;-80
2021/01/29 14:36:59;;;;;;;11.67;2.57;;;;;;;11.11;64.46;96029.97;8317427;28;20196;-79
2021/01/29 14:41:10;;;;;;;8.60;2.30;;;;;;;11.27;63.47;96029.63;8320126;28;20240;-80
2021/01/29 14:45:33;;;;;;;8.88;3.67;;;;;;;11.62;61.63;96030.41;8318216;28;20789;-79
2021/01/29 14:49:53;;;;;;;7.50;3.40;;;;;;;11.22;61.89;96018.78;8318695;28;20200;-79
2021/01/29 14:53:58;;;;;;;6.07;2.00;;;;;;;11.18;61.06;96040.72;8318251;28;20205;-80
2021/01/29 14:57:59;;;;;;;5.83;2.60;;;;;;;10.94;61.74;96040.81;8320796;28;20197;-79
2021/01/29 15:02:04;;;;;;;6.93;2.37;;;;;;;10.92;61.28;96033.16;8318054;28;20229;-80
2021/01/29 15:06:07;;;;;;;6.67;1.93;;;;;;;11.00;59.83;96042.94;8318524;28;20304;-79
2021/01/29 15:10:18;;;;;;;5.83;2.00;;;;;;;10.81;60.38;96048.69;8318715;28;20201;-79
2021/01/29 15:14:38;;;;;;;5.77;1.97;;;;;;;10.70;60.01;96051.25;8317911;28;20316;-80
2021/01/29 15:18:41;;;;;;;5.13;1.80;;;;;;;10.64;60.89;96056.91;8319096;28;20205;-80
2021/01/29 15:22:43;;;;;;;5.87;2.57;;;;;;;10.39;61.16;96056.16;8320726;28;20708;-79
2021/01/29 15:26:54;;;;;;;4.00;1.40;;;;;;;10.47;61.00;96061.59;8319652;28;20255;-80
2021/01/29 15:30:57;;;;;;;4.50;1.53;;;;;;;10.26;61.71;96076.06;8322871;28;20566;-79
2021/01/29 15:35:03;;;;;;;6.00;1.50;;;;;;;10.18;62.06;96074.03;8322222;28;20544;-80
2021/01/29 15:39:29;;;;;;;5.83;1.80;;;;;;;10.08;61.97;96073.88;8318658;28;20201;-80
2021/01/29 15:43:58;;;;;;;5.77;2.10;;;;;;;10.20;62.67;96071.34;8317796;28;20239;-80
2021/01/29 15:48:01;;;;;;;13.27;4.10;;;;;;;11.09;64.69;96088.84;8316515;28;20220;-80
2021/01/29 15:52:05;;;;;;;8.23;3.83;;;;;;;10.42;61.73;96070.63;8314674;28;20201;-79
2021/01/29 15:56:15;;;;;;;7.37;3.33;;;;;;;10.48;61.45;96071.00;8316830;28;20710;-79
2021/01/29 16:00:26;;;;;;;8.00;3.37;;;;;;;10.39;62.01;96066.50;8316350;28;20217;-79
2021/01/29 16:04:38;;;;;;;9.70;4.80;;;;;;;10.23;62.84;96060.78;8318031;28;20225;-79
2021/01/29 16:08:40;;;;;;;9.00;4.43;;;;;;;10.10;63.48;96068.59;8318649;28;20229;-79
2021/01/29 16:12:45;;;;;;;7.17;2.33;;;;;;;10.07;63.41;96059.31;8317774;28;20201;-79
2021/01/29 16:16:48;;;;;;;7.13;2.50;;;;;;;10.10;63.31;96060.84;8318685;28;20201;-79
2021/01/29 16:21:01;;;;;;;7.50;2.30;;;;;;;10.00;63.33;96073.63;8318788;28;20221;-79
2021/01/29 16:25:04;;;;;;;6.87;2.40;;;;;;;10.05;63.67;96073.28;8318815;28;20189;-79
2021/01/29 16:29:08;;;;;;;7.10;2.60;;;;;;;10.00;63.60;96088.31;8319882;28;20203;-79
2021/01/29 16:33:15;;;;;;;4.17;1.80;;;;;;;9.91;63.99;96092.38;8315598;28;20676;-79
2021/01/29 16:37:18;;;;;;;8.43;2.23;;;;;;;9.92;63.94;96100.03;8316241;28;20237;-79
2021/01/29 16:41:24;;;;;;;7.73;2.43;;;;;;;9.95;64.03;96106.72;8319786;28;20232;-78
2021/01/29 16:45:38;;;;;;;8.63;2.33;;;;;;;9.89;63.45;96102.81;8320936;28;20197;-79
2021/01/29 16:49:41;;;;;;;4.50;2.07;;;;;;;9.76;64.22;96109.78;8317296;28;20649;-80
2021/01/29 16:53:44;;;;;;;7.00;2.03;;;;;;;9.76;64.05;96112.38;8312401;28;20213;-78
2021/01/29 16:57:48;;;;;;;3.97;1.90;;;;;;;9.74;63.83;96106.50;8316084;28;20201;-79
2021/01/29 17:01:51;;;;;;;6.00;2.20;;;;;;;9.64;63.83;96110.69;8318046;28;20217;-79
2021/01/29 17:06:09;;;;;;;4.87;2.00;;;;;;;9.62;63.68;96115.94;8310836;28;20240;-79
2021/01/29 17:10:16;;;;;;;5.10;2.40;;;;;;;9.96;62.97;96105.81;8328323;28;20413;-80
2021/01/29 17:14:20;;;;;;;4.47;1.90;;;;;;;9.68;63.99;96112.94;8323293;28;20207;-80
2021/01/29 17:18:22;;;;;;;2.90;1.50;;;;;;;9.67;64.27;96106.13;8308432;28;20201;-79
2021/01/29 17:22:29;;;;;;;5.83;1.90;;;;;;;9.78;63.42;96107.94;8308221;28;20637;-79
2021/01/29 17:26:38;;;;;;;4.20;1.67;;;;;;;9.66;63.40;96117.38;8309363;28;20193;-80
2021/01/29 17:30:41;;;;;;;4.77;2.03;;;;;;;9.52;63.96;96120.94;8312809;28;20564;-80
2021/01/29 17:34:43;;;;;;;3.40;1.50;;;;;;;9.60;63.83;96112.66;8312529;28;20649;-79
2021/01/29 17:39:16;;;;;;;3.77;1.60;;;;;;;9.51;64.21;96115.88;8312802;28;20197;-79
2021/01/29 17:43:27;;;;;;;2.97;1.40;;;;;;;9.48;63.88;96121.22;8317048;28;20643;-79
2021/01/29 17:47:31;;;;;;;4.03;2.13;;;;;;;9.53;64.01;96109.66;8308956;28;20201;-79
2021/01/29 17:51:35;;;;;;;6.90;1.90;;;;;;;9.48;64.00;96116.06;8315075;28;20246;-81
2021/01/29 17:55:42;;;;;;;5.77;2.10;;;;;;;9.57;63.99;96123.19;8316217;28;20224;-79
2021/01/29 17:59:56;;;;;;;2.77;1.40;;;;;;;9.56;63.76;96117.19;8317199;28;20221;-79
2021/01/29 18:04:00;;;;;;;6.77;1.80;;;;;;;9.46;63.99;96110.19;8316588;28;20217;-78
2021/01/29 18:08:06;;;;;;;5.60;1.53;;;;;;;9.49;63.76;96118.56;8311515;28;20310;-79
2021/01/29 18:12:28;;;;;;;6.57;1.60;;;;;;;9.42;63.78;96126.84;8319639;28;20213;-79
2021/01/29 18:16:32;;;;;;;3.93;1.50;;;;;;;9.35;63.70;96134.19;8315525;28;20185;-78
2021/01/29 18:20:42;;;;;;;5.83;2.93;;;;;;;9.42;63.55;96119.91;8310740;28;20807;-79
2021/01/29 18:24:43;;;;;;;3.97;1.50;;;;;;;9.29;64.04;96126.84;8302671;28;20186;-78
2021/01/29 18:28:45;;;;;;;4.33;1.33;;;;;;;9.33;63.83;96126.53;8308733;28;20201;-78
2021/01/29 18:32:48;;;;;;;5.73;1.80;;;;;;;9.26;63.91;96127.06;8317910;28;20668;-79
2021/01/29 18:36:51;;;;;;;4.97;1.87;;;;;;;9.30;63.65;96134.50;8319246;28;20197;-79
2021/01/29 18:40:56;;;;;;;7.53;2.57;;;;;;;9.29;63.75;96127.69;8319826;28;20216;-79
2021/01/29 18:44:58;;;;;;;4.07;1.80;;;;;;;9.17;64.47;96139.66;8315795;28;20578;-79
2021/01/29 18:49:01;;;;;;;3.77;1.37;;;;;;;9.14;64.89;96119.22;8320160;28;20574;-79
2021/01/29 18:53:04;;;;;;;6.00;1.47;;;;;;;9.13;65.15;96127.88;8323464;28;20197;-79
2021/01/29 18:57:06;;;;;;;3.43;1.37;;;;;;;9.20;64.79;96128.31;8311388;28;20201;-79
2021/01/29 19:01:09;;;;;;;2.57;1.20;;;;;;;9.08;64.30;96142.03;8292567;28;20708;-79
2021/01/29 19:05:15;;;;;;;1.87;1.07;;;;;;;9.12;63.92;96141.75;8318722;28;20231;-78
2021/01/29 19:09:17;;;;;;;2.83;1.10;;;;;;;9.01;64.36;96144.22;8316127;28;20232;-78
2021/01/29 19:13:19;;;;;;;3.20;1.17;;;;;;;9.02;64.09;96145.84;8315208;28;20205;-78
2021/01/29 19:17:21;;;;;;;3.00;1.40;;;;;;;9.13;63.50;96143.38;8303875;28;20194;-79
2021/01/29 19:21:24;;;;;;;3.77;1.50;;;;;;;9.23;63.01;96140.19;8312421;28;20278;-79
2021/01/29 19:25:27;;;;;;;10.03;5.90;;;;;;;9.22;63.44;96141.94;8317243;28;20197;-78
2021/01/29 19:29:29;;;;;;;10.37;6.37;;;;;;;9.18;63.49;96143.91;8316904;28;20197;-79
2021/01/29 19:33:31;;;;;;;8.23;5.70;;;;;;;9.27;63.78;96147.63;8315751;28;20661;-79
2021/01/29 19:37:33;;;;;;;2.67;1.53;;;;;;;9.18;64.07;96150.84;8314677;28;20219;-79
2021/01/29 19:41:35;;;;;;;4.53;1.90;;;;;;;9.27;64.54;96157.97;8305487;28;20228;-78
2021/01/29 19:45:39;;;;;;;2.87;1.23;;;;;;;9.31;64.59;96161.13;8308054;28;20200;-78
2021/01/29 19:49:42;;;;;;;2.47;1.30;;;;;;;9.37;64.00;96169.31;8297326;28;20220;-78